sensor_id;sensor_type;location;lat;lon;timestamp;P1;durP1;ratioP1;P2;durP2;ratioP2
26946;SDS011;14501;52.282;10.560;2022-07-06T00:00:31;6.22;;;1.60;;
26946;SDS011;14501;52.282;10.560;2022-07-06T00:02:57;3.33;;;1.50;;
26946;SDS011;14501;52.282;10.560;2022-07-06T00:05:22;6.50;;;1.55;;
26946;SDS011;14501;52.282;10.560;2022-07-06T00:07:48;3.83;;;1.58;;
26946;SDS011;14501;52.282;10.560;2022-07-06T00:10:13;7.90;;;1.42;;
26946;SDS011;14501;52.282;10.560;2022-07-06T00:12:39;4.43;;;1.30;;
26946;SDS011;14501;52.282;10.560;2022-07-06T00:15:05;5.28;;;1.80;;
26946;SDS011;14501;52.282;10.560;2022-07-06T00:17:31;4.97;;;1.50;;
26946;SDS011;14501;52.282;10.560;2022-07-06T00:19:56;3.10;;;1.60;;
26946;SDS011;14501;52.282;10.560;2022-07-06T00:22:22;3.40;;;1.08;;
26946;SDS011;14501;52.282;10.560;2022-07-06T00:24:48;5.43;;;1.85;;
26946;SDS011;14501;52.282;10.560;2022-07-06T00:27:13;3.60;;;1.65;;
26946;SDS011;14501;52.282;10.560;2022-07-06T00:29:39;6.97;;;1.88;;
26946;SDS011;14501;52.282;10.560;2022-07-06T00:32:08;6.20;;;1.83;;
26946;SDS011;14501;52.282;10.560;2022-07-06T00:34:37;2.97;;;1.55;;
26946;SDS011;14501;52.282;10.560;2022-07-06T00:37:06;5.00;;;1.63;;
26946;SDS011;14501;52.282;10.560;2022-07-06T00:39:32;7.63;;;1.50;;
26946;SDS011;14501;52.282;10.560;2022-07-06T00:41:59;5.55;;;1.67;;
26946;SDS011;14501;52.282;10.560;2022-07-06T00:44:24;5.32;;;1.60;;
26946;SDS011;14501;52.282;10.560;2022-07-06T00:46:50;3.10;;;1.50;;
26946;SDS011;14501;52.282;10.560;2022-07-06T00:49:16;6.57;;;1.95;;
26946;SDS011;14501;52.282;10.560;2022-07-06T00:52:01;5.15;;;2.33;;
26946;SDS011;14501;52.282;10.560;2022-07-06T00:54:28;6.20;;;2.28;;
26946;SDS011;14501;52.282;10.560;2022-07-06T00:56:57;3.65;;;2.20;;
26946;SDS011;14501;52.282;10.560;2022-07-06T00:59:23;5.50;;;2.83;;
26946;SDS011;14501;52.282;10.560;2022-07-06T01:01:49;5.15;;;2.40;;
26946;SDS011;14501;52.282;10.560;2022-07-06T01:04:15;4.05;;;2.42;;
26946;SDS011;14501;52.282;10.560;2022-07-06T01:06:41;5.47;;;2.70;;
26946;SDS011;14501;52.282;10.560;2022-07-06T01:09:09;9.05;;;3.38;;
26946;SDS011;14501;52.282;10.560;2022-07-06T01:11:35;6.60;;;2.78;;
26946;SDS011;14501;52.282;10.560;2022-07-06T01:14:01;10.63;;;3.00;;
26946;SDS011;14501;52.282;10.560;2022-07-06T01:16:27;4.50;;;2.67;;
26946;SDS011;14501;52.282;10.560;2022-07-06T01:18:52;6.95;;;2.90;;
26946;SDS011;14501;52.282;10.560;2022-07-06T01:21:18;7.22;;;2.80;;
26946;SDS011;14501;52.282;10.560;2022-07-06T01:23:44;8.35;;;2.80;;
26946;SDS011;14501;52.282;10.560;2022-07-06T01:26:12;6.15;;;2.10;;
26946;SDS011;14501;52.282;10.560;2022-07-06T01:28:40;6.30;;;2.00;;
26946;SDS011;14501;52.282;10.560;2022-07-06T01:31:13;7.75;;;2.10;;
26946;SDS011;14501;52.282;10.560;2022-07-06T01:33:59;3.08;;;1.92;;
26946;SDS011;14501;52.282;10.560;2022-07-06T01:36:25;6.03;;;2.22;;
26946;SDS011;14501;52.282;10.560;2022-07-06T01:38:54;6.28;;;2.72;;
26946;SDS011;14501;52.282;10.560;2022-07-06T01:41:24;9.48;;;2.67;;
26946;SDS011;14501;52.282;10.560;2022-07-06T01:43:50;4.50;;;2.42;;
26946;SDS011;14501;52.282;10.560;2022-07-06T01:46:16;4.55;;;2.17;;
26946;SDS011;14501;52.282;10.560;2022-07-06T01:48:42;4.80;;;2.28;;
26946;SDS011;14501;52.282;10.560;2022-07-06T01:51:07;3.03;;;2.63;;
26946;SDS011;14501;52.282;10.560;2022-07-06T01:53:33;8.30;;;2.47;;
26946;SDS011;14501;52.282;10.560;2022-07-06T01:55:59;3.10;;;2.20;;
26946;SDS011;14501;52.282;10.560;2022-07-06T01:58:25;8.30;;;2.45;;
26946;SDS011;14501;52.282;10.560;2022-07-06T02:00:51;6.03;;;2.60;;
26946;SDS011;14501;52.282;10.560;2022-07-06T02:03:16;6.55;;;2.88;;
26946;SDS011;14501;52.282;10.560;2022-07-06T02:05:42;4.60;;;2.35;;
26946;SDS011;14501;52.282;10.560;2022-07-06T02:08:08;5.53;;;2.60;;
26946;SDS011;14501;52.282;10.560;2022-07-06T02:10:33;8.30;;;2.63;;
26946;SDS011;14501;52.282;10.560;2022-07-06T02:12:59;3.28;;;1.73;;
26946;SDS011;14501;52.282;10.560;2022-07-06T02:15:24;7.95;;;2.45;;
26946;SDS011;14501;52.282;10.560;2022-07-06T02:17:50;5.30;;;2.05;;
26946;SDS011;14501;52.282;10.560;2022-07-06T02:20:16;3.92;;;2.03;;
26946;SDS011;14501;52.282;10.560;2022-07-06T02:22:41;8.25;;;2.83;;
26946;SDS011;14501;52.282;10.560;2022-07-06T02:25:07;5.80;;;2.17;;
26946;SDS011;14501;52.282;10.560;2022-07-06T02:27:33;4.63;;;1.80;;
26946;SDS011;14501;52.282;10.560;2022-07-06T02:29:59;6.78;;;2.17;;
26946;SDS011;14501;52.282;10.560;2022-07-06T02:32:25;4.68;;;1.80;;
26946;SDS011;14501;52.282;10.560;2022-07-06T02:34:51;4.55;;;1.88;;
26946;SDS011;14501;52.282;10.560;2022-07-06T02:37:17;6.22;;;2.35;;
26946;SDS011;14501;52.282;10.560;2022-07-06T02:39:43;7.38;;;2.30;;
26946;SDS011;14501;52.282;10.560;2022-07-06T02:42:09;6.72;;;2.28;;
26946;SDS011;14501;52.282;10.560;2022-07-06T02:44:34;4.88;;;2.25;;
26946;SDS011;14501;52.282;10.560;2022-07-06T02:47:00;8.48;;;2.42;;
26946;SDS011;14501;52.282;10.560;2022-07-06T02:49:25;5.32;;;2.70;;
26946;SDS011;14501;52.282;10.560;2022-07-06T02:51:51;3.50;;;1.85;;
26946;SDS011;14501;52.282;10.560;2022-07-06T02:54:17;4.75;;;2.00;;
26946;SDS011;14501;52.282;10.560;2022-07-06T02:56:42;14.05;;;2.25;;
26946;SDS011;14501;52.282;10.560;2022-07-06T02:59:09;5.85;;;1.90;;
26946;SDS011;14501;52.282;10.560;2022-07-06T03:01:35;2.30;;;1.30;;
26946;SDS011;14501;52.282;10.560;2022-07-06T03:04:01;7.25;;;1.65;;
26946;SDS011;14501;52.282;10.560;2022-07-06T03:06:26;3.35;;;1.35;;
26946;SDS011;14501;52.282;10.560;2022-07-06T03:08:52;3.75;;;1.30;;
26946;SDS011;14501;52.282;10.560;2022-07-06T03:11:17;4.68;;;1.45;;
26946;SDS011;14501;52.282;10.560;2022-07-06T03:13:43;7.10;;;1.65;;
26946;SDS011;14501;52.282;10.560;2022-07-06T03:16:09;3.83;;;1.45;;
26946;SDS011;14501;52.282;10.560;2022-07-06T03:18:34;1.50;;;1.00;;
26946;SDS011;14501;52.282;10.560;2022-07-06T03:21:00;3.45;;;1.77;;
26946;SDS011;14501;52.282;10.560;2022-07-06T03:23:28;7.28;;;1.75;;
26946;SDS011;14501;52.282;10.560;2022-07-06T03:25:55;6.57;;;1.67;;
26946;SDS011;14501;52.282;10.560;2022-07-06T03:28:20;5.60;;;2.13;;
26946;SDS011;14501;52.282;10.560;2022-07-06T03:30:46;3.70;;;1.58;;
26946;SDS011;14501;52.282;10.560;2022-07-06T03:33:12;4.18;;;1.60;;
26946;SDS011;14501;52.282;10.560;2022-07-06T03:35:37;3.78;;;1.75;;
26946;SDS011;14501;52.282;10.560;2022-07-06T03:38:03;1.98;;;1.08;;
26946;SDS011;14501;52.282;10.560;2022-07-06T03:40:29;2.60;;;1.45;;
26946;SDS011;14501;52.282;10.560;2022-07-06T03:42:54;3.72;;;1.40;;
26946;SDS011;14501;52.282;10.560;2022-07-06T03:45:20;4.80;;;1.50;;
26946;SDS011;14501;52.282;10.560;2022-07-06T03:47:46;4.53;;;1.50;;
26946;SDS011;14501;52.282;10.560;2022-07-06T03:50:11;2.83;;;1.30;;
26946;SDS011;14501;52.282;10.560;2022-07-06T03:52:37;4.20;;;1.77;;
26946;SDS011;14501;52.282;10.560;2022-07-06T03:55:06;8.90;;;1.60;;
26946;SDS011;14501;52.282;10.560;2022-07-06T03:57:36;5.57;;;1.38;;
26946;SDS011;14501;52.282;10.560;2022-07-06T04:00:03;4.57;;;1.50;;
26946;SDS011;14501;52.282;10.560;2022-07-06T04:02:29;3.38;;;1.50;;
26946;SDS011;14501;52.282;10.560;2022-07-06T04:04:55;3.85;;;1.58;;
26946;SDS011;14501;52.282;10.560;2022-07-06T04:07:21;5.35;;;1.30;;
26946;SDS011;14501;52.282;10.560;2022-07-06T04:09:46;5.75;;;1.40;;
26946;SDS011;14501;52.282;10.560;2022-07-06T04:12:12;5.07;;;1.42;;
26946;SDS011;14501;52.282;10.560;2022-07-06T04:14:38;4.35;;;1.73;;
26946;SDS011;14501;52.282;10.560;2022-07-06T04:17:04;3.33;;;1.50;;
26946;SDS011;14501;52.282;10.560;2022-07-06T04:19:49;4.35;;;1.55;;
26946;SDS011;14501;52.282;10.560;2022-07-06T04:22:15;4.13;;;1.38;;
26946;SDS011;14501;52.282;10.560;2022-07-06T04:24:41;5.47;;;1.35;;
26946;SDS011;14501;52.282;10.560;2022-07-06T04:27:07;4.18;;;1.42;;
26946;SDS011;14501;52.282;10.560;2022-07-06T04:29:34;2.30;;;1.20;;
26946;SDS011;14501;52.282;10.560;2022-07-06T04:32:00;4.93;;;1.23;;
26946;SDS011;14501;52.282;10.560;2022-07-06T04:34:26;6.97;;;2.13;;
26946;SDS011;14501;52.282;10.560;2022-07-06T04:36:51;3.20;;;1.45;;
26946;SDS011;14501;52.282;10.560;2022-07-06T04:39:17;4.80;;;1.65;;
26946;SDS011;14501;52.282;10.560;2022-07-06T04:41:43;9.18;;;1.42;;
26946;SDS011;14501;52.282;10.560;2022-07-06T04:44:08;3.80;;;1.17;;
26946;SDS011;14501;52.282;10.560;2022-07-06T04:46:34;8.18;;;1.77;;
26946;SDS011;14501;52.282;10.560;2022-07-06T04:49:00;6.53;;;1.45;;
26946;SDS011;14501;52.282;10.560;2022-07-06T04:51:25;4.35;;;0.98;;
26946;SDS011;14501;52.282;10.560;2022-07-06T04:53:51;2.63;;;1.48;;
26946;SDS011;14501;52.282;10.560;2022-07-06T04:56:17;3.65;;;1.20;;
26946;SDS011;14501;52.282;10.560;2022-07-06T04:58:42;3.90;;;1.00;;
26946;SDS011;14501;52.282;10.560;2022-07-06T05:01:08;5.55;;;1.45;;
26946;SDS011;14501;52.282;10.560;2022-07-06T05:03:34;2.33;;;1.33;;
26946;SDS011;14501;52.282;10.560;2022-07-06T05:06:05;3.42;;;1.48;;
26946;SDS011;14501;52.282;10.560;2022-07-06T05:08:31;4.95;;;1.27;;
26946;SDS011;14501;52.282;10.560;2022-07-06T05:10:57;2.90;;;0.80;;
26946;SDS011;14501;52.282;10.560;2022-07-06T05:13:23;10.00;;;1.52;;
26946;SDS011;14501;52.282;10.560;2022-07-06T05:15:48;7.47;;;1.20;;
26946;SDS011;14501;52.282;10.560;2022-07-06T05:18:14;4.63;;;1.33;;
26946;SDS011;14501;52.282;10.560;2022-07-06T05:20:40;2.38;;;1.08;;
26946;SDS011;14501;52.282;10.560;2022-07-06T05:23:05;3.90;;;1.45;;
26946;SDS011;14501;52.282;10.560;2022-07-06T05:25:31;3.92;;;1.10;;
26946;SDS011;14501;52.282;10.560;2022-07-06T05:27:58;3.88;;;1.30;;
26946;SDS011;14501;52.282;10.560;2022-07-06T05:30:24;3.90;;;1.38;;
26946;SDS011;14501;52.282;10.560;2022-07-06T05:32:50;3.75;;;1.30;;
26946;SDS011;14501;52.282;10.560;2022-07-06T05:35:16;4.82;;;1.42;;
26946;SDS011;14501;52.282;10.560;2022-07-06T05:37:42;5.68;;;1.80;;
26946;SDS011;14501;52.282;10.560;2022-07-06T05:40:07;4.63;;;1.50;;
26946;SDS011;14501;52.282;10.560;2022-07-06T05:42:34;4.80;;;1.40;;
26946;SDS011;14501;52.282;10.560;2022-07-06T05:44:59;6.65;;;1.50;;
26946;SDS011;14501;52.282;10.560;2022-07-06T05:47:25;6.45;;;1.40;;
26946;SDS011;14501;52.282;10.560;2022-07-06T05:50:09;2.78;;;1.20;;
26946;SDS011;14501;52.282;10.560;2022-07-06T05:52:39;4.97;;;1.40;;
26946;SDS011;14501;52.282;10.560;2022-07-06T05:55:09;5.45;;;1.30;;
26946;SDS011;14501;52.282;10.560;2022-07-06T05:57:36;4.65;;;1.30;;
26946;SDS011;14501;52.282;10.560;2022-07-06T06:00:03;5.03;;;1.38;;
26946;SDS011;14501;52.282;10.560;2022-07-06T06:02:40;4.45;;;1.15;;
26946;SDS011;14501;52.282;10.560;2022-07-06T06:05:07;6.80;;;1.17;;
26946;SDS011;14501;52.282;10.560;2022-07-06T06:07:34;3.30;;;1.17;;
26946;SDS011;14501;52.282;10.560;2022-07-06T06:10:02;4.57;;;0.93;;
26946;SDS011;14501;52.282;10.560;2022-07-06T06:12:30;6.80;;;1.38;;
26946;SDS011;14501;52.282;10.560;2022-07-06T06:14:55;5.18;;;1.13;;
26946;SDS011;14501;52.282;10.560;2022-07-06T06:17:21;8.45;;;1.17;;
26946;SDS011;14501;52.282;10.560;2022-07-06T06:19:47;5.10;;;0.98;;
26946;SDS011;14501;52.282;10.560;2022-07-06T06:22:13;4.78;;;1.02;;
26946;SDS011;14501;52.282;10.560;2022-07-06T06:24:39;4.22;;;1.05;;
26946;SDS011;14501;52.282;10.560;2022-07-06T06:27:04;6.57;;;1.75;;
26946;SDS011;14501;52.282;10.560;2022-07-06T06:29:30;2.35;;;0.73;;
26946;SDS011;14501;52.282;10.560;2022-07-06T06:31:56;4.32;;;1.00;;
26946;SDS011;14501;52.282;10.560;2022-07-06T06:34:22;7.05;;;1.38;;
26946;SDS011;14501;52.282;10.560;2022-07-06T06:36:47;5.10;;;1.05;;
26946;SDS011;14501;52.282;10.560;2022-07-06T06:39:13;6.50;;;1.20;;
26946;SDS011;14501;52.282;10.560;2022-07-06T06:41:39;5.22;;;1.17;;
26946;SDS011;14501;52.282;10.560;2022-07-06T06:44:05;6.88;;;1.40;;
26946;SDS011;14501;52.282;10.560;2022-07-06T06:46:30;6.30;;;1.20;;
26946;SDS011;14501;52.282;10.560;2022-07-06T06:48:56;3.75;;;1.27;;
26946;SDS011;14501;52.282;10.560;2022-07-06T06:51:22;6.20;;;1.40;;
26946;SDS011;14501;52.282;10.560;2022-07-06T06:53:47;4.30;;;0.98;;
26946;SDS011;14501;52.282;10.560;2022-07-06T06:56:13;5.25;;;1.25;;
26946;SDS011;14501;52.282;10.560;2022-07-06T06:58:39;2.65;;;1.00;;
26946;SDS011;14501;52.282;10.560;2022-07-06T07:01:05;5.22;;;1.58;;
26946;SDS011;14501;52.282;10.560;2022-07-06T07:03:31;5.43;;;1.35;;
26946;SDS011;14501;52.282;10.560;2022-07-06T07:05:57;3.13;;;0.90;;
26946;SDS011;14501;52.282;10.560;2022-07-06T07:08:23;3.15;;;0.90;;
26946;SDS011;14501;52.282;10.560;2022-07-06T07:10:49;7.63;;;1.30;;
26946;SDS011;14501;52.282;10.560;2022-07-06T07:13:15;5.60;;;1.30;;
26946;SDS011;14501;52.282;10.560;2022-07-06T07:15:40;5.40;;;1.08;;
26946;SDS011;14501;52.282;10.560;2022-07-06T07:18:06;4.80;;;1.17;;
26946;SDS011;14501;52.282;10.560;2022-07-06T07:20:32;2.22;;;0.80;;
26946;SDS011;14501;52.282;10.560;2022-07-06T07:22:58;3.92;;;1.08;;
26946;SDS011;14501;52.282;10.560;2022-07-06T07:25:25;6.78;;;1.00;;
26946;SDS011;14501;52.282;10.560;2022-07-06T07:27:50;2.55;;;0.80;;
26946;SDS011;14501;52.282;10.560;2022-07-06T07:30:16;4.30;;;0.85;;
26946;SDS011;14501;52.282;10.560;2022-07-06T07:32:42;4.43;;;0.90;;
26946;SDS011;14501;52.282;10.560;2022-07-06T07:35:08;3.58;;;1.50;;
26946;SDS011;14501;52.282;10.560;2022-07-06T07:37:34;2.55;;;0.80;;
26946;SDS011;14501;52.282;10.560;2022-07-06T07:40:00;5.50;;;1.10;;
26946;SDS011;14501;52.282;10.560;2022-07-06T07:42:28;5.25;;;1.10;;
26946;SDS011;14501;52.282;10.560;2022-07-06T07:45:00;2.05;;;0.93;;
26946;SDS011;14501;52.282;10.560;2022-07-06T07:47:26;4.47;;;1.00;;
26946;SDS011;14501;52.282;10.560;2022-07-06T07:49:51;5.05;;;1.02;;
26946;SDS011;14501;52.282;10.560;2022-07-06T07:52:17;6.10;;;0.77;;
26946;SDS011;14501;52.282;10.560;2022-07-06T07:54:43;5.30;;;1.10;;
26946;SDS011;14501;52.282;10.560;2022-07-06T07:57:08;6.95;;;1.02;;
26946;SDS011;14501;52.282;10.560;2022-07-06T07:59:35;2.50;;;0.80;;
26946;SDS011;14501;52.282;10.560;2022-07-06T08:02:00;6.32;;;1.48;;
26946;SDS011;14501;52.282;10.560;2022-07-06T08:04:26;3.42;;;1.00;;
26946;SDS011;14501;52.282;10.560;2022-07-06T08:06:52;2.53;;;0.88;;
26946;SDS011;14501;52.282;10.560;2022-07-06T08:09:17;4.22;;;0.80;;
26946;SDS011;14501;52.282;10.560;2022-07-06T08:11:43;2.08;;;0.70;;
26946;SDS011;14501;52.282;10.560;2022-07-06T08:14:09;2.70;;;1.10;;
26946;SDS011;14501;52.282;10.560;2022-07-06T08:16:35;5.35;;;1.00;;
26946;SDS011;14501;52.282;10.560;2022-07-06T08:19:00;5.85;;;1.13;;
26946;SDS011;14501;52.282;10.560;2022-07-06T08:21:26;6.60;;;0.90;;
26946;SDS011;14501;52.282;10.560;2022-07-06T08:23:52;2.58;;;0.60;;
26946;SDS011;14501;52.282;10.560;2022-07-06T08:26:18;3.42;;;0.73;;
26946;SDS011;14501;52.282;10.560;2022-07-06T08:28:44;1.33;;;0.47;;
26946;SDS011;14501;52.282;10.560;2022-07-06T08:31:10;3.92;;;0.68;;
26946;SDS011;14501;52.282;10.560;2022-07-06T08:33:36;4.65;;;0.90;;
26946;SDS011;14501;52.282;10.560;2022-07-06T08:36:02;5.38;;;1.40;;
26946;SDS011;14501;52.282;10.560;2022-07-06T08:38:27;2.75;;;0.70;;
26946;SDS011;14501;52.282;10.560;2022-07-06T08:40:53;2.75;;;0.50;;
26946;SDS011;14501;52.282;10.560;2022-07-06T08:43:20;4.63;;;0.85;;
26946;SDS011;14501;52.282;10.560;2022-07-06T08:45:48;3.88;;;1.17;;
26946;SDS011;14501;52.282;10.560;2022-07-06T08:48:15;3.47;;;0.70;;
26946;SDS011;14501;52.282;10.560;2022-07-06T08:50:42;1.60;;;0.70;;
26946;SDS011;14501;52.282;10.560;2022-07-06T08:53:08;3.88;;;1.02;;
26946;SDS011;14501;52.282;10.560;2022-07-06T08:55:34;4.22;;;1.00;;
26946;SDS011;14501;52.282;10.560;2022-07-06T08:58:01;2.83;;;0.70;;
26946;SDS011;14501;52.282;10.560;2022-07-06T09:00:26;2.75;;;0.65;;
26946;SDS011;14501;52.282;10.560;2022-07-06T09:02:52;2.70;;;0.70;;
26946;SDS011;14501;52.282;10.560;2022-07-06T09:05:22;2.25;;;0.50;;
26946;SDS011;14501;52.282;10.560;2022-07-06T09:07:51;5.50;;;0.70;;
26946;SDS011;14501;52.282;10.560;2022-07-06T09:10:18;3.22;;;0.65;;
26946;SDS011;14501;52.282;10.560;2022-07-06T09:12:46;2.88;;;0.57;;
26946;SDS011;14501;52.282;10.560;2022-07-06T09:15:11;1.85;;;0.60;;
26946;SDS011;14501;52.282;10.560;2022-07-06T09:17:38;5.82;;;0.68;;
26946;SDS011;14501;52.282;10.560;2022-07-06T09:20:06;2.33;;;0.60;;
26946;SDS011;14501;52.282;10.560;2022-07-06T09:22:36;3.55;;;0.77;;
26946;SDS011;14501;52.282;10.560;2022-07-06T09:25:07;2.50;;;0.90;;
26946;SDS011;14501;52.282;10.560;2022-07-06T09:27:41;4.53;;;1.10;;
26946;SDS011;14501;52.282;10.560;2022-07-06T09:30:09;2.95;;;0.60;;
26946;SDS011;14501;52.282;10.560;2022-07-06T09:32:42;4.22;;;1.10;;
26946;SDS011;14501;52.282;10.560;2022-07-06T09:35:23;3.88;;;1.05;;
26946;SDS011;14501;52.282;10.560;2022-07-06T09:40:42;1.23;;;0.70;;
26946;SDS011;14501;52.282;10.560;2022-07-06T09:43:20;1.60;;;0.60;;
26946;SDS011;14501;52.282;10.560;2022-07-06T09:45:54;3.45;;;1.50;;
26946;SDS011;14501;52.282;10.560;2022-07-06T09:48:21;3.33;;;0.90;;
26946;SDS011;14501;52.282;10.560;2022-07-06T09:50:49;3.03;;;0.60;;
26946;SDS011;14501;52.282;10.560;2022-07-06T09:53:18;2.45;;;0.85;;
26946;SDS011;14501;52.282;10.560;2022-07-06T09:55:46;2.92;;;0.88;;
26946;SDS011;14501;52.282;10.560;2022-07-06T09:58:14;2.70;;;0.52;;
26946;SDS011;14501;52.282;10.560;2022-07-06T10:00:40;5.40;;;0.75;;
26946;SDS011;14501;52.282;10.560;2022-07-06T10:03:10;2.00;;;0.63;;
26946;SDS011;14501;52.282;10.560;2022-07-06T10:05:37;5.00;;;0.80;;
26946;SDS011;14501;52.282;10.560;2022-07-06T10:08:04;5.20;;;1.00;;
26946;SDS011;14501;52.282;10.560;2022-07-06T10:10:34;2.80;;;0.65;;
26946;SDS011;14501;52.282;10.560;2022-07-06T10:13:00;1.58;;;0.93;;
26946;SDS011;14501;52.282;10.560;2022-07-06T10:15:29;2.33;;;0.50;;
26946;SDS011;14501;52.282;10.560;2022-07-06T10:17:59;5.20;;;0.57;;
26946;SDS011;14501;52.282;10.560;2022-07-06T10:20:30;3.25;;;0.77;;
26946;SDS011;14501;52.282;10.560;2022-07-06T10:23:02;2.20;;;0.60;;
26946;SDS011;14501;52.282;10.560;2022-07-06T10:25:29;4.35;;;0.80;;
26946;SDS011;14501;52.282;10.560;2022-07-06T10:27:55;1.40;;;0.65;;
26946;SDS011;14501;52.282;10.560;2022-07-06T10:30:21;2.72;;;1.00;;
26946;SDS011;14501;52.282;10.560;2022-07-06T10:32:49;3.20;;;0.80;;
26946;SDS011;14501;52.282;10.560;2022-07-06T10:35:16;2.95;;;0.57;;
26946;SDS011;14501;52.282;10.560;2022-07-06T10:37:45;1.73;;;0.75;;
26946;SDS011;14501;52.282;10.560;2022-07-06T10:40:13;3.88;;;0.82;;
26946;SDS011;14501;52.282;10.560;2022-07-06T10:42:58;2.58;;;0.80;;
26946;SDS011;14501;52.282;10.560;2022-07-06T10:50:38;4.57;;;1.05;;
26946;SDS011;14501;52.282;10.560;2022-07-06T10:53:10;4.28;;;0.98;;
26946;SDS011;14501;52.282;10.560;2022-07-06T10:58:05;5.45;;;1.13;;
26946;SDS011;14501;52.282;10.560;2022-07-06T11:06:13;2.42;;;0.70;;
26946;SDS011;14501;52.282;10.560;2022-07-06T11:08:50;2.97;;;0.60;;
26946;SDS011;14501;52.282;10.560;2022-07-06T11:14:14;2.15;;;0.52;;
26946;SDS011;14501;52.282;10.560;2022-07-06T11:19:21;1.70;;;0.50;;
26946;SDS011;14501;52.282;10.560;2022-07-06T11:24:37;5.43;;;0.70;;
26946;SDS011;14501;52.282;10.560;2022-07-06T11:27:04;2.03;;;0.70;;
26946;SDS011;14501;52.282;10.560;2022-07-06T11:29:32;4.85;;;0.65;;
26946;SDS011;14501;52.282;10.560;2022-07-06T11:32:00;3.00;;;0.52;;
26946;SDS011;14501;52.282;10.560;2022-07-06T11:34:32;3.17;;;0.80;;
26946;SDS011;14501;52.282;10.560;2022-07-06T11:37:17;3.47;;;0.80;;
26946;SDS011;14501;52.282;10.560;2022-07-06T11:39:44;2.10;;;0.70;;
26946;SDS011;14501;52.282;10.560;2022-07-06T11:42:12;2.72;;;0.63;;
26946;SDS011;14501;52.282;10.560;2022-07-06T11:44:39;3.55;;;1.17;;
26946;SDS011;14501;52.282;10.560;2022-07-06T11:47:06;4.28;;;0.98;;
26946;SDS011;14501;52.282;10.560;2022-07-06T11:49:35;8.00;;;1.08;;
26946;SDS011;14501;52.282;10.560;2022-07-06T11:52:09;1.58;;;0.80;;
26946;SDS011;14501;52.282;10.560;2022-07-06T11:54:36;5.10;;;0.82;;
26946;SDS011;14501;52.282;10.560;2022-07-06T11:57:02;4.15;;;0.43;;
26946;SDS011;14501;52.282;10.560;2022-07-06T11:59:32;1.77;;;0.55;;
26946;SDS011;14501;52.282;10.560;2022-07-06T12:02:03;5.22;;;0.82;;
26946;SDS011;14501;52.282;10.560;2022-07-06T12:04:36;3.40;;;0.75;;
26946;SDS011;14501;52.282;10.560;2022-07-06T12:07:04;1.95;;;0.60;;
26946;SDS011;14501;52.282;10.560;2022-07-06T12:09:33;3.47;;;0.60;;
26946;SDS011;14501;52.282;10.560;2022-07-06T12:12:00;2.88;;;1.02;;
26946;SDS011;14501;52.282;10.560;2022-07-06T12:14:27;1.85;;;0.50;;
26946;SDS011;14501;52.282;10.560;2022-07-06T12:16:54;2.40;;;1.02;;
26946;SDS011;14501;52.282;10.560;2022-07-06T12:19:23;0.85;;;0.40;;
26946;SDS011;14501;52.282;10.560;2022-07-06T12:21:50;2.65;;;0.70;;
26946;SDS011;14501;52.282;10.560;2022-07-06T12:24:17;1.65;;;0.60;;
26946;SDS011;14501;52.282;10.560;2022-07-06T12:26:44;2.88;;;0.55;;
26946;SDS011;14501;52.282;10.560;2022-07-06T12:29:10;2.63;;;0.50;;
26946;SDS011;14501;52.282;10.560;2022-07-06T12:31:43;1.83;;;0.60;;
26946;SDS011;14501;52.282;10.560;2022-07-06T12:36:50;4.18;;;0.93;;
26946;SDS011;14501;52.282;10.560;2022-07-06T12:39:21;2.03;;;0.77;;
26946;SDS011;14501;52.282;10.560;2022-07-06T12:41:51;2.10;;;0.70;;
26946;SDS011;14501;52.282;10.560;2022-07-06T12:44:25;1.80;;;0.80;;
26946;SDS011;14501;52.282;10.560;2022-07-06T12:47:01;2.27;;;0.57;;
26946;SDS011;14501;52.282;10.560;2022-07-06T12:49:28;1.77;;;0.70;;
26946;SDS011;14501;52.282;10.560;2022-07-06T12:59:23;1.55;;;0.75;;
26946;SDS011;14501;52.282;10.560;2022-07-06T13:01:49;2.75;;;0.93;;
26946;SDS011;14501;52.282;10.560;2022-07-06T13:04:22;5.57;;;0.70;;
26946;SDS011;14501;52.282;10.560;2022-07-06T13:06:49;8.60;;;0.75;;
26946;SDS011;14501;52.282;10.560;2022-07-06T13:09:15;0.85;;;0.60;;
26946;SDS011;14501;52.282;10.560;2022-07-06T13:11:41;3.08;;;0.70;;
26946;SDS011;14501;52.282;10.560;2022-07-06T13:14:07;2.00;;;0.60;;
26946;SDS011;14501;52.282;10.560;2022-07-06T13:16:36;4.30;;;0.50;;
26946;SDS011;14501;52.282;10.560;2022-07-06T13:19:01;3.47;;;0.57;;
26946;SDS011;14501;52.282;10.560;2022-07-06T13:21:27;3.70;;;0.70;;
26946;SDS011;14501;52.282;10.560;2022-07-06T13:23:53;3.25;;;0.70;;
26946;SDS011;14501;52.282;10.560;2022-07-06T13:26:18;3.90;;;0.93;;
26946;SDS011;14501;52.282;10.560;2022-07-06T13:28:44;5.35;;;0.93;;
26946;SDS011;14501;52.282;10.560;2022-07-06T13:31:10;3.20;;;0.68;;
26946;SDS011;14501;52.282;10.560;2022-07-06T13:33:36;2.63;;;0.68;;
26946;SDS011;14501;52.282;10.560;2022-07-06T13:36:01;3.63;;;0.73;;
26946;SDS011;14501;52.282;10.560;2022-07-06T13:38:27;2.97;;;0.90;;
26946;SDS011;14501;52.282;10.560;2022-07-06T13:40:53;2.22;;;0.90;;
26946;SDS011;14501;52.282;10.560;2022-07-06T13:43:19;3.78;;;0.60;;
26946;SDS011;14501;52.282;10.560;2022-07-06T13:45:45;3.17;;;0.50;;
26946;SDS011;14501;52.282;10.560;2022-07-06T13:48:11;2.47;;;0.57;;
26946;SDS011;14501;52.282;10.560;2022-07-06T13:50:37;2.60;;;0.77;;
26946;SDS011;14501;52.282;10.560;2022-07-06T13:53:03;4.28;;;1.10;;
26946;SDS011;14501;52.282;10.560;2022-07-06T13:55:29;1.92;;;0.60;;
26946;SDS011;14501;52.282;10.560;2022-07-06T13:57:55;3.67;;;0.80;;
26946;SDS011;14501;52.282;10.560;2022-07-06T14:00:21;4.20;;;0.65;;
26946;SDS011;14501;52.282;10.560;2022-07-06T14:02:47;3.47;;;0.95;;
26946;SDS011;14501;52.282;10.560;2022-07-06T14:05:13;3.00;;;0.40;;
26946;SDS011;14501;52.282;10.560;2022-07-06T14:07:38;4.22;;;0.50;;
26946;SDS011;14501;52.282;10.560;2022-07-06T14:10:04;2.30;;;0.85;;
26946;SDS011;14501;52.282;10.560;2022-07-06T14:12:30;0.80;;;0.50;;
26946;SDS011;14501;52.282;10.560;2022-07-06T14:14:56;3.10;;;0.65;;
26946;SDS011;14501;52.282;10.560;2022-07-06T14:17:22;2.63;;;1.00;;
26946;SDS011;14501;52.282;10.560;2022-07-06T14:19:49;3.53;;;1.10;;
26946;SDS011;14501;52.282;10.560;2022-07-06T14:22:14;1.00;;;0.60;;
26946;SDS011;14501;52.282;10.560;2022-07-06T14:24:40;1.17;;;0.90;;
26946;SDS011;14501;52.282;10.560;2022-07-06T14:27:06;2.75;;;0.55;;
26946;SDS011;14501;52.282;10.560;2022-07-06T14:29:32;2.45;;;0.70;;
26946;SDS011;14501;52.282;10.560;2022-07-06T14:31:58;3.45;;;0.70;;
26946;SDS011;14501;52.282;10.560;2022-07-06T14:34:24;5.22;;;0.70;;
26946;SDS011;14501;52.282;10.560;2022-07-06T14:36:50;3.85;;;0.50;;
26946;SDS011;14501;52.282;10.560;2022-07-06T14:39:16;1.77;;;1.27;;
26946;SDS011;14501;52.282;10.560;2022-07-06T14:41:42;3.10;;;0.70;;
26946;SDS011;14501;52.282;10.560;2022-07-06T14:44:07;3.15;;;0.57;;
26946;SDS011;14501;52.282;10.560;2022-07-06T14:46:34;2.05;;;0.70;;
26946;SDS011;14501;52.282;10.560;2022-07-06T14:49:00;1.35;;;0.73;;
26946;SDS011;14501;52.282;10.560;2022-07-06T14:51:26;1.67;;;0.50;;
26946;SDS011;14501;52.282;10.560;2022-07-06T14:53:52;1.52;;;0.55;;
26946;SDS011;14501;52.282;10.560;2022-07-06T14:56:17;2.78;;;0.90;;
26946;SDS011;14501;52.282;10.560;2022-07-06T14:58:43;1.60;;;0.50;;
26946;SDS011;14501;52.282;10.560;2022-07-06T15:01:09;5.25;;;0.70;;
26946;SDS011;14501;52.282;10.560;2022-07-06T15:03:35;4.53;;;0.50;;
26946;SDS011;14501;52.282;10.560;2022-07-06T15:06:00;2.88;;;0.80;;